Time;durP1;ratioP1;P1;durP2;ratioP2;P2;SDS_P1;SDS_P2;PMS_P1;PMS_P2;Temp;Humidity;BMP_temperature;BMP_pressure;BME280_temperature;BME280_humidity;BME280_pressure;Samples;Min_cycle;Max_cycle;Signal;HPM_P1;HPM_P2
2023/03/11 00:02:09;;;;;;;11.45;6.53;;;;;;;-144.57;100.00;62443.72;5014283;28;20474;-63
2023/03/11 00:04:35;;;;;;;11.75;6.15;;;;;;;-144.57;100.00;62443.72;5014470;28;20041;-62
2023/03/11 00:07:00;;;;;;;12.75;6.43;;;;;;;-144.57;100.00;62443.72;4980009;28;20511;-63
2023/03/11 00:09:26;;;;;;;13.20;6.88;;;;;;;-144.57;100.00;62443.72;5014127;28;20053;-62
2023/03/11 00:11:52;;;;;;;16.65;8.27;;;;;;;-144.57;100.00;62443.72;4996266;28;20041;-64
2023/03/11 00:14:17;;;;;;;15.90;8.00;;;;;;;-144.57;100.00;62443.72;5014208;28;20053;-62
2023/03/11 00:16:43;;;;;;;17.30;9.38;;;;;;;-144.57;100.00;62443.72;5013944;28;20038;-62
2023/03/11 00:19:09;;;;;;;20.35;9.50;;;;;;;-144.57;100.00;62443.72;4996092;28;20042;-62
2023/03/11 00:21:35;;;;;;;16.25;9.18;;;;;;;-144.57;100.00;62443.72;5013685;28;20511;-63
2023/03/11 00:24:02;;;;;;;20.90;9.38;;;;;;;-144.57;100.00;62443.72;4996284;28;20045;-62
2023/03/11 00:26:28;;;;;;;14.98;9.52;;;;;;;-144.57;100.00;62443.72;5013570;28;20046;-63
2023/03/11 00:28:54;;;;;;;19.02;10.15;;;;;;;-144.57;100.00;62443.72;5013576;28;20050;-62
2023/03/11 00:31:20;;;;;;;15.07;9.07;;;;;;;-144.57;100.00;62443.72;4996273;28;20073;-62
2023/03/11 00:33:46;;;;;;;14.18;9.27;;;;;;;-144.57;100.00;62443.72;4995908;28;20419;-60
2023/03/11 00:36:32;;;;;;;15.93;9.23;;;;;;;-144.57;100.00;62443.72;4979846;28;20442;-63
2023/03/11 00:39:00;;;;;;;13.75;7.80;;;;;;;-144.57;100.00;62443.72;5013487;28;20042;-62
2023/03/11 00:41:27;;;;;;;12.23;7.35;;;;;;;-144.57;100.00;62443.72;5012253;28;20042;-63
2023/03/11 00:43:52;;;;;;;11.77;7.90;;;;;;;-144.57;100.00;62443.72;5013325;28;20041;-62
2023/03/11 00:46:18;;;;;;;11.68;7.65;;;;;;;-144.57;100.00;62443.72;4996113;28;20061;-62
2023/03/11 00:48:44;;;;;;;11.68;6.88;;;;;;;-144.57;100.00;62443.72;4995369;28;20046;-62
2023/03/11 00:51:13;;;;;;;10.82;6.10;;;;;;;-144.57;100.00;62443.72;4979434;28;20484;-63
2023/03/11 00:53:39;;;;;;;11.15;6.75;;;;;;;-144.57;100.00;62443.72;4994480;28;20077;-63
2023/03/11 00:56:10;;;;;;;12.52;6.40;;;;;;;-144.57;100.00;62443.72;5013424;28;20129;-64
2023/03/11 00:58:37;;;;;;;12.55;7.13;;;;;;;-144.57;100.00;62443.72;5011724;28;20050;-62
2023/03/11 01:01:16;;;;;;;13.65;6.40;;;;;;;-144.57;100.00;62443.72;4995538;28;20427;-61
2023/03/11 01:03:42;;;;;;;13.48;6.50;;;;;;;-144.57;100.00;62443.72;4995197;28;20060;-66
2023/03/11 01:06:10;;;;;;;13.13;6.95;;;;;;;-144.57;100.00;62443.72;4995362;28;20057;-63
2023/03/11 01:08:35;;;;;;;14.48;6.80;;;;;;;-144.57;100.00;62443.72;4962710;28;20042;-62
2023/03/11 01:11:02;;;;;;;17.23;7.50;;;;;;;-144.57;100.00;62443.72;4995174;28;20060;-64
2023/03/11 01:13:29;;;;;;;15.57;7.95;;;;;;;-144.57;100.00;62443.72;4995054;28;20061;-62
2023/03/11 01:15:56;;;;;;;16.75;7.45;;;;;;;-144.57;100.00;62443.72;5012829;28;20046;-62
2023/03/11 01:18:22;;;;;;;11.50;6.97;;;;;;;-144.57;100.00;62443.72;5012609;28;20517;-62
2023/03/11 01:20:48;;;;;;;13.93;6.97;;;;;;;-144.57;100.00;62443.72;4995086;28;20129;-62
2023/03/11 01:23:15;;;;;;;11.98;6.85;;;;;;;-144.57;100.00;62443.72;5012364;28;20045;-64
2023/03/11 01:25:40;;;;;;;13.43;7.03;;;;;;;-144.57;100.00;62443.72;4978722;28;20042;-63
2023/03/11 01:28:07;;;;;;;13.40;6.80;;;;;;;-144.57;100.00;62443.72;4994685;28;20061;-64
2023/03/11 01:30:35;;;;;;;12.32;6.45;;;;;;;-144.57;100.00;62443.72;4978850;28;20066;-62
2023/03/11 01:33:01;;;;;;;13.15;6.38;;;;;;;-144.57;100.00;62443.72;5015449;28;20037;-63
2023/03/11 01:35:28;;;;;;;9.88;5.85;;;;;;;-144.57;100.00;62443.72;5014631;28;20354;-64
2023/03/11 01:37:54;;;;;;;14.05;6.80;;;;;;;-144.57;100.00;62443.72;5027392;28;20053;-62
2023/03/11 01:40:25;;;;;;;14.63;7.18;;;;;;;-144.57;100.00;62443.72;5012245;28;20056;-62
2023/03/11 01:42:51;;;;;;;10.52;6.25;;;;;;;-144.57;100.00;62443.72;4978209;28;20073;-63
2023/03/11 01:45:39;;;;;;;19.95;7.75;;;;;;;-144.57;100.00;62443.72;5010910;28;20066;-62
2023/03/11 01:48:08;;;;;;;16.67;7.38;;;;;;;-144.57;100.00;62443.72;4994101;28;20499;-62
2023/03/11 01:50:37;;;;;;;19.20;8.02;;;;;;;-144.57;100.00;62443.72;5003631;28;20068;-62
2023/03/11 01:53:04;;;;;;;17.42;7.57;;;;;;;-144.57;100.00;62443.72;4991707;28;20038;-63
2023/03/11 01:55:31;;;;;;;17.23;8.75;;;;;;;-144.57;100.00;62443.72;5010757;28;20058;-62
2023/03/11 01:57:59;;;;;;;19.30;9.50;;;;;;;-144.57;100.00;62443.72;4977921;28;20088;-62
2023/03/11 02:00:25;;;;;;;18.35;9.38;;;;;;;-144.57;100.00;62443.72;4994484;28;20045;-62
2023/03/11 02:02:52;;;;;;;17.85;9.13;;;;;;;-144.57;100.00;62443.72;4994180;28;20030;-62
2023/03/11 02:05:22;;;;;;;15.18;8.18;;;;;;;-144.57;100.00;62443.72;4978017;28;20057;-62
2023/03/11 02:07:50;;;;;;;14.75;7.43;;;;;;;-144.57;100.00;62443.72;5011764;28;20061;-62
2023/03/11 02:10:17;;;;;;;10.63;6.90;;;;;;;-144.57;100.00;62443.72;5010356;28;20088;-61
2023/03/11 02:12:44;;;;;;;11.68;6.72;;;;;;;-144.57;100.00;62443.72;4994607;28;20034;-62
2023/03/11 02:15:21;;;;;;;11.73;7.10;;;;;;;-144.57;100.00;62443.72;4994189;28;20521;-63
2023/03/11 02:17:47;;;;;;;11.38;6.53;;;;;;;-144.57;100.00;62443.72;4993907;28;20080;-62
2023/03/11 02:20:21;;;;;;;11.88;6.03;;;;;;;-144.57;100.00;62443.72;4977949;28;20081;-61
2023/03/11 02:22:48;;;;;;;11.98;6.85;;;;;;;-144.57;100.00;62443.72;5011592;28;20072;-61
2023/03/11 02:25:21;;;;;;;10.70;6.72;;;;;;;-144.57;100.00;62443.72;4994153;28;20042;-63
2023/03/11 02:27:48;;;;;;;12.15;6.93;;;;;;;-144.57;100.00;62443.72;4993788;28;20041;-61
2023/03/11 02:30:16;;;;;;;13.10;6.47;;;;;;;-144.57;100.00;62443.72;4994177;28;20048;-61
2023/03/11 02:32:46;;;;;;;8.63;6.50;;;;;;;-144.57;100.00;62443.72;4993984;28;20052;-62
2023/03/11 02:35:13;;;;;;;12.88;6.55;;;;;;;-144.57;100.00;62443.72;4993836;28;20511;-63
2023/03/11 02:37:46;;;;;;;12.98;7.68;;;;;;;-144.57;100.00;62443.72;4993705;28;20056;-63
2023/03/11 02:40:35;;;;;;;10.68;6.55;;;;;;;-144.57;100.00;62443.72;5010243;28;20496;-62
2023/03/11 02:43:10;;;;;;;15.82;7.25;;;;;;;-144.57;100.00;62443.72;4977487;28;20104;-62
2023/03/11 02:45:38;;;;;;;12.07;6.85;;;;;;;-144.57;100.00;62443.72;4994005;28;20066;-63
2023/03/11 02:48:06;;;;;;;10.85;7.15;;;;;;;-144.57;100.00;62443.72;4993792;28;20054;-60
2023/03/11 02:50:35;;;;;;;12.75;6.90;;;;;;;-144.57;100.00;62443.72;4993925;28;20554;-61
2023/03/11 02:53:03;;;;;;;11.00;6.63;;;;;;;-144.57;100.00;62443.72;4993418;28;20480;-64
2023/03/11 02:55:29;;;;;;;13.02;7.15;;;;;;;-144.57;100.00;62443.72;4993913;28;20507;-63
2023/03/11 02:57:55;;;;;;;12.60;7.72;;;;;;;-144.57;100.00;62443.72;5011098;28;20100;-61
2023/03/11 03:00:21;;;;;;;13.23;7.20;;;;;;;-144.57;100.00;62443.72;5010078;28;20046;-64
2023/03/11 03:02:55;;;;;;;9.90;6.05;;;;;;;-144.57;100.00;62443.72;4993383;28;20041;-62
2023/03/11 03:05:21;;;;;;;10.63;6.68;;;;;;;-144.57;100.00;62443.72;5010011;28;20125;-64
2023/03/11 03:07:49;;;;;;;13.00;6.80;;;;;;;-144.57;100.00;62443.72;4993344;28;20415;-60
2023/03/11 03:10:17;;;;;;;11.10;6.47;;;;;;;-144.57;100.00;62443.72;4993782;28;20446;-63
2023/03/11 03:12:43;;;;;;;11.70;6.07;;;;;;;-144.57;100.00;62443.72;5009514;28;20034;-62
2023/03/11 03:15:09;;;;;;;11.70;6.78;;;;;;;-144.57;100.00;62443.72;4993935;28;20407;-64
2023/03/11 03:17:36;;;;;;;13.02;7.65;;;;;;;-144.57;100.00;62443.72;4996681;28;20069;-63
2023/03/11 03:20:06;;;;;;;12.18;6.95;;;;;;;-144.57;100.00;62443.72;4997215;28;20048;-62
2023/03/11 03:22:32;;;;;;;16.35;7.93;;;;;;;-144.57;100.00;62443.72;4997152;28;20041;-61
2023/03/11 03:24:58;;;;;;;14.10;8.32;;;;;;;-144.57;100.00;62443.72;5014724;28;20530;-62
2023/03/11 03:27:24;;;;;;;17.27;8.80;;;;;;;-144.57;100.00;62443.72;4996915;28;20064;-63
2023/03/11 03:29:50;;;;;;;16.08;9.00;;;;;;;-144.57;100.00;62443.72;4997375;28;20631;-61
2023/03/11 03:32:16;;;;;;;17.13;9.25;;;;;;;-144.57;100.00;62443.72;4997102;28;20056;-64
2023/03/11 03:34:42;;;;;;;21.67;10.20;;;;;;;-144.57;100.00;62443.72;5013225;28;20049;-63
2023/03/11 03:37:08;;;;;;;18.38;9.77;;;;;;;-144.57;100.00;62443.72;4997112;28;20046;-62
2023/03/11 03:39:34;;;;;;;20.40;10.13;;;;;;;-144.57;100.00;62443.72;4996919;28;20046;-63
2023/03/11 03:42:00;;;;;;;16.75;8.45;;;;;;;-144.57;100.00;62443.72;4980624;28;20072;-63
2023/03/11 03:44:29;;;;;;;15.35;8.38;;;;;;;-144.57;100.00;62443.72;5013122;28;20488;-63
2023/03/11 03:46:55;;;;;;;16.35;8.40;;;;;;;-144.57;100.00;62443.72;4993634;28;20066;-63
2023/03/11 03:49:21;;;;;;;14.57;8.57;;;;;;;-144.57;100.00;62443.72;4993458;28;20424;-63
2023/03/11 03:51:46;;;;;;;14.43;8.18;;;;;;;-144.57;100.00;62443.72;4993488;28;20166;-63
2023/03/11 03:54:21;;;;;;;15.13;8.52;;;;;;;-144.57;100.00;62443.72;4985959;28;20085;-63
2023/03/11 03:56:46;;;;;;;13.98;8.75;;;;;;;-144.57;100.00;62443.72;4974008;28;20078;-64
2023/03/11 03:59:12;;;;;;;13.77;8.80;;;;;;;-144.57;100.00;62443.72;5005299;28;20042;-63
2023/03/11 04:01:43;;;;;;;16.77;9.40;;;;;;;-144.57;100.00;62443.72;5009775;28;20046;-64
2023/03/11 04:04:09;;;;;;;13.60;8.40;;;;;;;-144.57;100.00;62443.72;4993196;28;20495;-63
2023/03/11 04:06:35;;;;;;;15.82;9.73;;;;;;;-144.57;100.00;62443.72;4993430;28;20043;-62
2023/03/11 04:09:03;;;;;;;18.50;9.45;;;;;;;-144.57;100.00;62443.72;4992920;28;20054;-63
2023/03/11 04:11:32;;;;;;;18.13;10.02;;;;;;;-144.57;100.00;62443.72;4977227;28;20046;-62
2023/03/11 04:13:58;;;;;;;16.25;9.25;;;;;;;-144.57;100.00;62443.72;5009222;28;20042;-63
2023/03/11 04:16:25;;;;;;;16.95;9.38;;;;;;;-144.57;100.00;62443.72;4977036;28;20046;-63
2023/03/11 04:18:57;;;;;;;17.70;8.30;;;;;;;-144.57;100.00;62443.72;4993770;28;20089;-63
2023/03/11 04:21:23;;;;;;;13.65;8.20;;;;;;;-144.57;100.00;62443.72;4976737;28;20591;-63
2023/03/11 04:23:48;;;;;;;11.52;7.57;;;;;;;-144.57;100.00;62443.72;4992708;28;20400;-63
2023/03/11 04:26:17;;;;;;;14.65;8.43;;;;;;;-144.57;100.00;62443.72;4992818;28;20081;-62
2023/03/11 04:28:42;;;;;;;17.27;8.35;;;;;;;-144.57;100.00;62443.72;4993745;28;20050;-63
2023/03/11 04:31:08;;;;;;;12.77;8.07;;;;;;;-144.57;100.00;62443.72;4976568;28;20039;-64
2023/03/11 04:33:34;;;;;;;17.15;9.77;;;;;;;-144.57;100.00;62443.72;4992663;28;20399;-62
2023/03/11 04:36:05;;;;;;;16.20;9.35;;;;;;;-144.57;100.00;62443.72;4976525;28;20046;-63
2023/03/11 04:38:31;;;;;;;20.08;10.80;;;;;;;-144.57;100.00;62443.72;4992450;28;20050;-64
2023/03/11 04:41:03;;;;;;;22.33;10.02;;;;;;;-144.57;100.00;62443.72;4994002;28;20112;-63
2023/03/11 04:43:29;;;;;;;20.92;10.73;;;;;;;-144.57;100.00;62443.72;4976227;28;20132;-62
2023/03/11 04:45:55;;;;;;;20.42;10.82;;;;;;;-144.57;100.00;62443.72;4976093;28;20193;-61
2023/03/11 04:48:21;;;;;;;22.17;11.25;;;;;;;-144.57;100.00;62443.72;4993799;28;20054;-63
2023/03/11 04:50:47;;;;;;;16.73;10.63;;;;;;;-144.57;100.00;62443.72;4976000;28;20066;-63
2023/03/11 04:53:13;;;;;;;21.23;11.13;;;;;;;-144.57;100.00;62443.72;4992173;28;20046;-62
2023/03/11 04:55:40;;;;;;;17.88;10.65;;;;;;;-144.57;100.00;62443.72;4992244;28;20046;-63
2023/03/11 04:58:06;;;;;;;20.08;11.32;;;;;;;-144.57;100.00;62443.72;4992136;28;20133;-63
2023/03/11 05:00:34;;;;;;;17.52;10.82;;;;;;;-144.57;100.00;62443.72;5008566;28;20050;-63
2023/03/11 05:03:06;;;;;;;19.35;11.48;;;;;;;-144.57;100.00;62443.72;5008283;28;20069;-63
2023/03/11 05:05:32;;;;;;;22.17;11.65;;;;;;;-144.57;100.00;62443.72;4975908;28;20050;-63
2023/03/11 05:07:58;;;;;;;23.45;11.77;;;;;;;-144.57;100.00;62443.72;5008070;28;20046;-62
2023/03/11 05:10:24;;;;;;;19.52;11.50;;;;;;;-144.57;100.00;62443.72;4991987;28;20046;-64
2023/03/11 05:12:54;;;;;;;21.33;12.32;;;;;;;-144.57;100.00;62443.72;4991643;28;20038;-63
2023/03/11 05:15:22;;;;;;;24.58;13.38;;;;;;;-144.57;100.00;62443.72;4991971;28;20427;-62
2023/03/11 05:17:49;;;;;;;28.10;14.50;;;;;;;-144.57;100.00;62443.72;4975754;28;20038;-64
2023/03/11 05:20:14;;;;;;;25.73;14.10;;;;;;;-144.57;100.00;62443.72;4991912;28;20053;-63
2023/03/11 05:22:40;;;;;;;26.23;14.70;;;;;;;-144.57;100.00;62443.72;4992353;28;20476;-63
2023/03/11 05:25:06;;;;;;;23.50;13.95;;;;;;;-144.57;100.00;62443.72;4991777;28;20046;-64
2023/03/11 05:27:33;;;;;;;23.27;12.88;;;;;;;-144.57;100.00;62443.72;4991355;28;20053;-62
2023/03/11 05:29:58;;;;;;;25.88;14.40;;;;;;;-144.57;100.00;62443.72;4991582;28;20050;-63
2023/03/11 05:32:26;;;;;;;25.92;14.70;;;;;;;-144.57;100.00;62443.72;4991565;28;20045;-63
2023/03/11 05:34:53;;;;;;;27.42;13.93;;;;;;;-144.57;100.00;62443.72;4975412;28;20550;-63
2023/03/11 05:37:19;;;;;;;25.83;13.80;;;;;;;-144.57;100.00;62443.72;5007863;28;20112;-64
2023/03/11 05:39:47;;;;;;;24.90;14.80;;;;;;;-144.57;100.00;62443.72;4990920;28;20047;-63
2023/03/11 05:42:13;;;;;;;25.63;15.20;;;;;;;-144.57;100.00;62443.72;4975540;28;20057;-63
2023/03/11 05:44:40;;;;;;;22.38;13.13;;;;;;;-144.57;100.00;62443.72;4991388;28;20046;-62
2023/03/11 05:47:07;;;;;;;22.00;12.73;;;;;;;-144.57;100.00;62443.72;4955749;28;20464;-63
2023/03/11 05:49:34;;;;;;;21.33;12.73;;;;;;;-144.57;100.00;62443.72;4971818;28;20198;-63
2023/03/11 05:52:00;;;;;;;20.65;12.05;;;;;;;-144.57;100.00;62443.72;4971855;28;20074;-63
2023/03/11 05:54:27;;;;;;;19.50;11.70;;;;;;;-144.57;100.00;62443.72;4987615;28;20523;-65
2023/03/11 05:56:54;;;;;;;26.35;12.95;;;;;;;-144.57;100.00;62443.72;4971630;28;20054;-66
2023/03/11 05:59:22;;;;;;;20.88;12.05;;;;;;;-144.57;100.00;62443.72;4998624;28;20125;-66
2023/03/11 06:01:53;;;;;;;21.90;12.20;;;;;;;-144.57;100.00;62443.72;4974931;28;20540;-65
2023/03/11 06:04:20;;;;;;;24.45;12.30;;;;;;;-144.57;100.00;62443.72;4974880;28;20408;-63
2023/03/11 06:06:46;;;;;;;19.25;11.73;;;;;;;-144.57;100.00;62443.72;4972821;28;20054;-67
2023/03/11 06:09:13;;;;;;;22.23;11.93;;;;;;;-144.57;100.00;62443.72;4965684;28;20053;-66
2023/03/11 06:11:40;;;;;;;21.40;11.32;;;;;;;-144.57;100.00;62443.72;4971635;28;20527;-65
2023/03/11 06:14:06;;;;;;;23.05;12.88;;;;;;;-144.57;100.00;62443.72;4971143;28;20101;-64
2023/03/11 06:16:31;;;;;;;22.48;12.77;;;;;;;-144.57;100.00;62443.72;4972680;28;20051;-64
2023/03/11 06:19:00;;;;;;;23.58;13.98;;;;;;;-144.57;100.00;62443.72;4971077;28;20047;-64
2023/03/11 06:21:30;;;;;;;19.95;12.32;;;;;;;-144.57;100.00;62443.72;4971563;28;20408;-65
2023/03/11 06:23:55;;;;;;;22.33;13.02;;;;;;;-144.57;100.00;62443.72;4971600;28;20457;-63
2023/03/11 06:26:22;;;;;;;23.38;12.90;;;;;;;-144.57;100.00;62443.72;4970637;28;20047;-65
2023/03/11 06:28:49;;;;;;;20.90;12.95;;;;;;;-144.57;100.00;62443.72;4978996;28;20046;-63
2023/03/11 06:31:18;;;;;;;23.38;13.07;;;;;;;-144.57;100.00;62443.72;4971026;28;20460;-64
2023/03/11 06:33:45;;;;;;;23.38;13.80;;;;;;;-144.57;100.00;62443.72;4986915;28;20039;-64
2023/03/11 06:36:12;;;;;;;22.95;12.55;;;;;;;-144.57;100.00;62443.72;4954943;28;20043;-63
2023/03/11 06:38:41;;;;;;;19.77;12.48;;;;;;;-144.57;100.00;62443.72;4986391;28;20173;-63
2023/03/11 06:41:08;;;;;;;19.30;11.15;;;;;;;-144.57;100.00;62443.72;4970844;28;20059;-63
2023/03/11 06:43:34;;;;;;;18.75;12.55;;;;;;;-144.57;100.00;62443.72;4971950;28;20142;-63
2023/03/11 06:46:10;;;;;;;17.45;11.07;;;;;;;-144.57;100.00;62443.72;4997104;28;20069;-62
2023/03/11 06:48:37;;;;;;;19.10;12.07;;;;;;;-144.57;100.00;62443.72;4989845;28;20046;-64
2023/03/11 06:51:03;;;;;;;21.98;12.15;;;;;;;-144.57;100.00;62443.72;4992705;28;20046;-64
2023/03/11 06:53:29;;;;;;;17.88;10.70;;;;;;;-144.57;100.00;62443.72;4983209;28;20489;-65
2023/03/11 06:56:04;;;;;;;19.02;11.77;;;;;;;-144.57;100.00;62443.72;4973608;28;20130;-66
2023/03/11 06:58:33;;;;;;;17.25;10.70;;;;;;;-144.57;100.00;62443.72;4976614;28;20054;-62
2023/03/11 07:01:01;;;;;;;22.52;10.63;;;;;;;-144.57;100.00;62443.72;4956474;28;20487;-64
2023/03/11 07:03:27;;;;;;;20.75;12.35;;;;;;;-144.57;100.00;62443.72;4972319;28;20471;-64
2023/03/11 07:05:53;;;;;;;15.50;9.73;;;;;;;-144.57;100.00;62443.72;4956079;28;20082;-65
2023/03/11 07:08:19;;;;;;;16.83;10.93;;;;;;;-144.57;100.00;62443.72;4974047;28;20100;-65
2023/03/11 07:10:45;;;;;;;18.75;9.48;;;;;;;-144.57;100.00;62443.72;4974531;28;20126;-66
2023/03/11 07:13:11;;;;;;;19.25;8.85;;;;;;;-144.57;100.00;62443.72;4972944;28;20035;-63
2023/03/11 07:15:38;;;;;;;21.83;10.20;;;;;;;-144.57;100.00;62443.72;4974626;28;20133;-63
2023/03/11 07:18:04;;;;;;;18.77;10.18;;;;;;;-144.57;100.00;62443.72;4973260;28;20576;-63
2023/03/11 07:20:29;;;;;;;15.38;9.57;;;;;;;-144.57;100.00;62443.72;4972463;28;20082;-63
2023/03/11 07:22:55;;;;;;;16.83;9.40;;;;;;;-144.57;100.00;62443.72;4972109;28;20043;-63
2023/03/11 07:25:21;;;;;;;18.58;10.00;;;;;;;-144.57;100.00;62443.72;4973336;28;20157;-64
2023/03/11 07:27:48;;;;;;;15.23;9.55;;;;;;;-144.57;100.00;62443.72;4958201;28;20055;-63
2023/03/11 07:30:14;;;;;;;20.58;10.35;;;;;;;-144.57;100.00;62443.72;4974280;28;20125;-63
2023/03/11 07:32:41;;;;;;;19.05;9.60;;;;;;;-144.57;100.00;62443.72;4973984;28;20133;-63
2023/03/11 07:35:07;;;;;;;19.77;9.68;;;;;;;-144.57;100.00;62443.72;4971898;28;20047;-63
2023/03/11 07:37:32;;;;;;;14.50;9.93;;;;;;;-144.57;100.00;62443.72;4989030;28;20420;-63
2023/03/11 07:39:58;;;;;;;16.30;9.35;;;;;;;-144.57;100.00;62443.72;4957948;28;20062;-63
2023/03/11 07:42:24;;;;;;;19.77;10.00;;;;;;;-144.57;100.00;62443.72;4974455;28;20047;-64
2023/03/11 07:44:52;;;;;;;16.17;9.82;;;;;;;-144.57;100.00;62443.72;4976780;28;20047;-63
2023/03/11 07:47:18;;;;;;;15.45;8.40;;;;;;;-144.57;100.00;62443.72;5013975;28;20049;-63
2023/03/11 07:49:44;;;;;;;17.52;9.05;;;;;;;-144.57;100.00;62443.72;5014672;28;20391;-63
2023/03/11 07:52:09;;;;;;;14.50;8.05;;;;;;;-144.57;100.00;62443.72;4995626;28;20052;-63
2023/03/11 07:54:35;;;;;;;14.80;9.10;;;;;;;-144.57;100.00;62443.72;5013414;28;20439;-63
2023/03/11 07:57:02;;;;;;;12.48;8.20;;;;;;;-144.57;100.00;62443.72;5013166;28;20068;-64
2023/03/11 07:59:28;;;;;;;12.15;8.73;;;;;;;-144.57;100.00;62443.72;4996181;28;20046;-63
2023/03/11 08:01:53;;;;;;;16.15;8.82;;;;;;;-144.57;100.00;62443.72;5013355;28;20060;-65
2023/03/11 08:04:19;;;;;;;13.38;7.68;;;;;;;-144.57;100.00;62443.72;5013961;28;20137;-63
2023/03/11 08:06:46;;;;;;;15.25;8.10;;;;;;;-144.57;100.00;62443.72;5013298;28;20288;-63
2023/03/11 08:09:12;;;;;;;14.93;8.43;;;;;;;-144.57;100.00;62443.72;5013256;28;20088;-63
2023/03/11 08:11:38;;;;;;;11.93;7.25;;;;;;;-144.57;100.00;62443.72;4978541;28;20045;-64
2023/03/11 08:14:05;;;;;;;13.07;7.35;;;;;;;-144.57;100.00;62443.72;4994269;28;20033;-63
2023/03/11 08:16:31;;;;;;;13.25;7.72;;;;;;;-144.57;100.00;62443.72;4994354;28;20567;-64
2023/03/11 08:18:56;;;;;;;13.35;7.97;;;;;;;-144.57;100.00;62443.72;5013263;28;20048;-63
2023/03/11 08:21:25;;;;;;;15.60;7.60;;;;;;;-144.57;100.00;62443.72;5013397;28;20046;-67
2023/03/11 08:23:51;;;;;;;11.23;7.88;;;;;;;-144.57;100.00;62443.72;4995404;28;20393;-62
2023/03/11 08:26:19;;;;;;;13.48;7.30;;;;;;;-144.57;100.00;62443.72;4977982;28;20415;-64
2023/03/11 08:28:45;;;;;;;8.82;6.00;;;;;;;-144.57;100.00;62443.72;4994822;28;20056;-64
2023/03/11 08:31:19;;;;;;;10.40;7.07;;;;;;;-144.57;100.00;62443.72;5013410;28;20101;-61
2023/03/11 08:33:48;;;;;;;11.90;6.63;;;;;;;-144.57;100.00;62443.72;5013033;28;20487;-63
2023/03/11 08:36:15;;;;;;;12.30;6.60;;;;;;;-144.57;100.00;62443.72;4995049;28;20081;-63
2023/03/11 08:38:40;;;;;;;10.48;6.82;;;;;;;-144.57;100.00;62443.72;4996003;28;20049;-63
2023/03/11 08:41:07;;;;;;;9.60;6.72;;;;;;;-144.57;100.00;62443.72;5008740;28;20412;-67
2023/03/11 08:43:32;;;;;;;10.32;6.43;;;;;;;-144.57;100.00;62443.72;4993925;28;20403;-66
2023/03/11 08:46:02;;;;;;;14.57;7.00;;;;;;;-144.57;100.00;62443.72;5012797;28;20061;-64
2023/03/11 08:48:30;;;;;;;10.73;5.90;;;;;;;-144.57;100.00;62443.72;5013027;28;20140;-62
2023/03/11 08:50:57;;;;;;;8.20;4.93;;;;;;;-144.57;100.00;62443.72;4979449;28;20050;-63
2023/03/11 08:53:23;;;;;;;13.40;6.40;;;;;;;-144.57;100.00;62443.72;4979077;28;20096;-62
2023/03/11 08:55:51;;;;;;;12.10;6.22;;;;;;;-144.57;100.00;62443.72;5011174;28;20599;-62
2023/03/11 08:58:17;;;;;;;14.73;6.95;;;;;;;-144.57;100.00;62443.72;4987498;28;20520;-63
2023/03/11 09:00:43;;;;;;;12.75;6.72;;;;;;;-144.57;100.00;62443.72;4992092;28;20113;-63
2023/03/11 09:03:09;;;;;;;13.60;6.57;;;;;;;-144.57;100.00;62443.72;4993151;28;20046;-64
2023/03/11 09:05:35;;;;;;;13.50;6.35;;;;;;;-144.57;100.00;62443.72;4992978;28;20688;-64
2023/03/11 09:08:02;;;;;;;11.40;6.47;;;;;;;-144.57;100.00;62443.72;4991869;28;20146;-63
2023/03/11 09:10:28;;;;;;;12.90;6.25;;;;;;;-144.57;100.00;62443.72;4992546;28;20499;-62
2023/03/11 09:12:53;;;;;;;12.30;6.95;;;;;;;-144.57;100.00;62443.72;4992768;28;20146;-64
2023/03/11 09:15:19;;;;;;;9.88;6.32;;;;;;;-144.57;100.00;62443.72;4991171;28;20416;-65
2023/03/11 09:17:45;;;;;;;11.00;6.63;;;;;;;-144.57;100.00;62443.72;4992634;28;20054;-63
2023/03/11 09:20:12;;;;;;;10.20;6.03;;;;;;;-144.57;100.00;62443.72;4975399;28;20058;-65
2023/03/11 09:22:38;;;;;;;12.25;6.30;;;;;;;-144.57;100.00;62443.72;5010873;28;20454;-62
2023/03/11 09:25:04;;;;;;;11.27;6.30;;;;;;;-144.57;100.00;62443.72;5031784;28;20057;-62
2023/03/11 09:27:30;;;;;;;12.32;6.38;;;;;;;-144.57;100.00;62443.72;5031705;28;20499;-63
2023/03/11 09:29:55;;;;;;;11.75;6.38;;;;;;;-144.57;100.00;62443.72;5014290;28;20045;-64
2023/03/11 09:32:21;;;;;;;11.63;6.90;;;;;;;-144.57;100.00;62443.72;5014138;28;20506;-65
2023/03/11 09:34:46;;;;;;;12.65;7.18;;;;;;;-144.57;100.00;62443.72;5031719;28;20128;-63
2023/03/11 09:37:12;;;;;;;14.38;7.57;;;;;;;-144.57;100.00;62443.72;5030954;28;20045;-63
2023/03/11 09:39:38;;;;;;;20.67;8.23;;;;;;;-144.57;100.00;62443.72;5031883;28;20037;-65
2023/03/11 09:42:28;;;;;;;14.02;8.27;;;;;;;-144.57;100.00;62443.72;5032392;28;20045;-64
2023/03/11 09:45:02;;;;;;;11.55;7.95;;;;;;;-144.57;100.00;62443.72;5031964;28;20134;-65
2023/03/11 09:47:35;;;;;;;14.70;8.55;;;;;;;-144.57;100.00;62443.72;5031902;28;20103;-63
2023/03/11 09:50:07;;;;;;;17.90;9.32;;;;;;;-144.57;100.00;62443.72;4997554;28;20049;-63
2023/03/11 09:53:31;;;;;;;34.47;13.68;;;;;;;-144.57;100.00;62443.72;5031728;28;20044;-65
2023/03/11 09:56:01;;;;;;;36.28;15.00;;;;;;;-144.57;100.00;62443.72;4911954;29;20060;-66
2023/03/11 09:58:41;;;;;;;;;;;;;;;-144.57;100.00;62443.72;4915964;29;20585;-64
2023/03/11 10:01:33;;;;;;;21.40;11.70;;;;;;;-144.57;100.00;62443.72;4986148;28;19979;-65
2023/03/11 10:04:20;;;;;;;19.08;11.57;;;;;;;-144.57;100.00;62443.72;5010641;28;20037;-64
2023/03/11 10:06:47;;;;;;;20.40;12.18;;;;;;;-144.57;100.00;62443.72;4996060;28;20411;-65
2023/03/11 10:09:52;;;;;;;23.25;12.15;;;;;;;-144.57;100.00;62443.72;4993846;28;20053;-64
2023/03/11 10:12:18;;;;;;;26.30;12.70;;;;;;;-144.57;100.00;62443.72;4878215;29;20496;-64
2023/03/11 10:15:14;;;;;;;21.95;11.48;;;;;;;-144.57;100.00;62443.72;4990344;28;20050;-64
2023/03/11 10:18:07;;;;;;;20.10;11.20;;;;;;;-144.57;100.00;62443.72;5011146;28;20562;-63
2023/03/11 10:20:52;;;;;;;25.25;11.38;;;;;;;-144.57;100.00;62443.72;5011582;28;20422;-64
2023/03/11 10:23:42;;;;;;;21.42;10.93;;;;;;;-144.57;100.00;62443.72;4993615;28;20454;-64
2023/03/11 10:26:33;;;;;;;17.55;10.20;;;;;;;-144.57;100.00;62443.72;4993488;28;20096;-63
2023/03/11 10:29:17;;;;;;;;;;;;;;;-144.57;100.00;62443.72;5010853;28;20052;-63
2023/03/11 10:31:48;;;;;;;13.43;7.78;;;;;;;-144.57;100.00;62443.72;5011729;28;19932;-64
2023/03/11 10:34:31;;;;;;;14.15;8.07;;;;;;;-144.57;100.00;62443.72;4977256;28;20092;-63
2023/03/11 10:37:28;;;;;;;16.05;7.85;;;;;;;-144.57;100.00;62443.72;5010810;28;20058;-69
2023/03/11 10:39:54;;;;;;;14.80;7.63;;;;;;;-144.57;100.00;62443.72;5018810;28;20049;-63
2023/03/11 10:42:24;;;;;;;10.88;6.70;;;;;;;-144.57;100.00;62443.72;5012742;28;20052;-63
2023/03/11 10:44:50;;;;;;;12.45;7.10;;;;;;;-144.57;100.00;62443.72;5029261;28;20479;-62
2023/03/11 10:47:22;;;;;;;11.50;6.85;;;;;;;-144.57;100.00;62443.72;5030687;28;20083;-63
2023/03/11 10:49:48;;;;;;;11.80;7.32;;;;;;;-144.57;100.00;62443.72;5031064;28;20045;-62
2023/03/11 10:52:14;;;;;;;12.55;6.63;;;;;;;-144.57;100.00;62443.72;5031015;28;20049;-63
2023/03/11 10:54:44;;;;;;;13.18;7.47;;;;;;;-144.57;100.00;62443.72;5027061;28;20049;-63
2023/03/11 10:57:34;;;;;;;10.27;6.10;;;;;;;-144.57;100.00;62443.72;5011011;28;20128;-64
2023/03/11 11:00:16;;;;;;;13.25;7.03;;;;;;;-144.57;100.00;62443.72;5004887;28;20085;-62
2023/03/11 11:02:56;;;;;;;9.98;6.43;;;;;;;-144.57;100.00;62443.72;4977599;28;20041;-63
2023/03/11 11:05:32;;;;;;;12.07;7.15;;;;;;;-144.57;100.00;62443.72;4993354;28;20423;-64
2023/03/11 11:08:13;;;;;;;9.95;6.68;;;;;;;-144.57;100.00;62443.72;5010783;28;20053;-63